createdAt,value
2023-02-21T00:22:29.348Z,1.49
2023-02-21T00:23:29.384Z,1.65
2023-02-21T00:24:29.399Z,1.91
2023-02-21T00:25:29.412Z,1.21
2023-02-21T00:26:29.442Z,1.95
2023-02-21T00:27:29.454Z,1.45
2023-02-21T00:28:29.500Z,1.74
2023-02-21T00:29:29.490Z,1.41
2023-02-21T00:30:29.661Z,1.68
2023-02-21T00:31:29.591Z,1.63
2023-02-21T00:32:29.603Z,1.36
2023-02-21T00:33:29.668Z,1.47
2023-02-21T00:34:29.633Z,1.35
2023-02-21T00:35:29.652Z,1.71
2023-02-21T00:36:29.670Z,1.41
2023-02-21T00:37:29.711Z,1.23
2023-02-21T00:38:29.769Z,1.77
2023-02-21T00:39:29.774Z,1.65
2023-02-21T00:40:29.804Z,1.82
2023-02-21T00:41:29.814Z,1.45
2023-02-21T00:42:29.883Z,1.89
2023-02-21T00:43:29.892Z,1.72
2023-02-21T00:44:29.917Z,1.24
2023-02-21T00:45:29.941Z,1.62
2023-02-21T00:46:29.980Z,1.77
2023-02-21T00:47:30.032Z,1.63
2023-02-21T00:48:30.023Z,1.54
2023-02-21T00:49:30.040Z,1.41
2023-02-21T00:50:30.096Z,1.25
2023-02-21T00:51:30.109Z,1.40
2023-02-21T00:52:30.119Z,1.68
2023-02-21T00:53:30.133Z,1.42
2023-02-21T00:54:30.169Z,1.49
2023-02-21T00:55:30.200Z,1.47
2023-02-21T00:56:30.213Z,1.45
2023-02-21T00:57:30.246Z,1.72
2023-02-21T00:58:30.295Z,1.85
2023-02-21T00:59:30.345Z,1.93
2023-02-21T01:00:30.352Z,1.46
2023-02-21T01:01:30.429Z,1.28
2023-02-21T01:02:30.388Z,1.47
2023-02-21T01:03:30.424Z,1.12
2023-02-21T01:04:30.655Z,1.49
2023-02-21T01:05:30.493Z,1.52
2023-02-21T01:06:30.509Z,1.33
2023-02-21T01:07:30.564Z,1.61
2023-02-21T01:08:30.568Z,1.46
2023-02-21T01:09:30.617Z,1.48
2023-02-21T01:10:30.645Z,1.46
2023-02-21T01:11:30.652Z,1.54
2023-02-21T01:12:30.688Z,1.22
2023-02-21T01:13:30.776Z,1.54
2023-02-21T01:14:30.755Z,1.60
2023-02-21T01:15:30.804Z,1.58
2023-02-21T01:16:30.790Z,1.41
2023-02-21T01:17:30.827Z,1.53
2023-02-21T01:18:30.835Z,1.17
2023-02-21T01:19:30.880Z,1.42
2023-02-21T01:20:30.903Z,1.22
2023-02-21T01:21:30.928Z,1.25
2023-02-21T01:22:30.937Z,1.47
2023-02-21T01:23:30.973Z,1.32
2023-02-21T01:24:30.979Z,1.29
2023-02-21T01:25:30.994Z,1.66
2023-02-21T01:26:31.045Z,1.24
2023-02-21T01:27:31.058Z,1.40
2023-02-21T01:28:31.112Z,1.68
2023-02-21T01:29:31.114Z,1.30
2023-02-21T01:30:31.170Z,1.52
2023-02-21T01:31:31.280Z,1.36
2023-02-21T01:32:31.194Z,1.66
2023-02-21T01:33:31.205Z,1.69
2023-02-21T01:34:31.234Z,1.48
2023-02-21T01:35:31.266Z,1.38
2023-02-21T01:36:31.288Z,1.38
2023-02-21T01:37:31.291Z,1.18
2023-02-21T01:38:31.334Z,1.66
2023-02-21T01:39:31.342Z,1.52
2023-02-21T01:40:31.361Z,1.27
2023-02-21T01:41:31.373Z,1.44
2023-02-21T01:42:31.403Z,2.04
2023-02-21T01:43:31.421Z,1.56
2023-02-21T01:44:31.487Z,1.39
2023-02-21T01:45:31.503Z,1.25
2023-02-21T01:46:31.562Z,1.50
2023-02-21T01:47:31.528Z,1.19
2023-02-21T01:48:32.161Z,1.32
2023-02-21T01:49:31.530Z,1.33
2023-02-21T01:50:31.501Z,1.44
2023-02-21T01:51:31.521Z,1.38
2023-02-21T01:52:31.465Z,1.55
2023-02-21T01:53:31.468Z,1.65
2023-02-21T01:54:31.419Z,1.61
2023-02-21T01:55:31.479Z,1.75
2023-02-21T01:56:31.353Z,1.36
2023-02-21T01:57:31.377Z,1.62
2023-02-21T01:58:31.406Z,1.51
2023-02-21T01:59:31.442Z,1.82
2023-02-21T02:00:31.480Z,1.43
2023-02-21T02:01:31.505Z,1.19
2023-02-21T02:02:31.508Z,1.63
2023-02-21T02:03:31.567Z,1.43
2023-02-21T02:04:31.602Z,1.44
2023-02-21T02:05:31.618Z,1.34
2023-02-21T02:06:31.640Z,1.49
2023-02-21T02:45:32.260Z,1.35
2023-02-21T02:46:32.283Z,1.88
2023-02-21T02:47:32.305Z,1.11
2023-02-21T02:48:32.312Z,1.45
2023-02-21T02:49:32.360Z,1.28
2023-02-21T02:50:32.364Z,1.30
2023-02-21T02:51:32.404Z,1.06
2023-02-21T02:52:32.427Z,1.53
2023-02-21T02:53:32.458Z,1.54
2023-02-21T02:54:32.472Z,1.80
2023-02-21T02:55:32.496Z,1.16
2023-02-21T02:56:32.573Z,1.20
2023-02-21T02:57:32.572Z,1.35
2023-02-21T02:58:32.603Z,1.06
2023-02-21T02:59:32.624Z,1.42
2023-02-21T03:00:32.654Z,1.19
2023-02-21T03:01:32.817Z,1.33
2023-02-21T03:02:32.724Z,1.36
2023-02-21T03:03:32.757Z,1.51
2023-02-21T03:04:32.759Z,1.25
2023-02-21T03:05:32.802Z,1.29
2023-02-21T03:06:32.963Z,1.19
2023-02-21T03:07:34.497Z,1.61
2023-02-21T03:08:32.805Z,1.27
2023-02-21T03:09:32.769Z,1.43
2023-02-21T03:10:32.742Z,1.44
2023-02-21T03:11:32.732Z,1.40
2023-02-21T03:12:32.667Z,1.20
2023-02-21T03:13:32.634Z,1.35
2023-02-21T03:14:32.616Z,1.52
2023-02-21T03:15:32.594Z,1.38
2023-02-21T03:16:32.560Z,1.26
2023-02-21T03:17:32.522Z,1.28
2023-02-21T03:18:32.470Z,1.42
2023-02-21T03:19:32.453Z,1.45
2023-02-21T03:20:32.436Z,1.17
2023-02-21T03:21:32.409Z,1.35
2023-02-21T03:22:32.379Z,1.52
2023-02-21T03:23:32.295Z,1.46
2023-02-21T03:24:32.263Z,1.19
2023-02-21T03:25:32.236Z,1.54
2023-02-21T03:26:32.207Z,1.97
2023-02-21T03:27:32.168Z,1.57
2023-02-21T03:28:32.121Z,1.43
2023-02-21T03:29:32.122Z,1.10
2023-02-21T03:30:32.146Z,1.30
2023-02-21T03:31:32.142Z,1.12
2023-02-21T03:32:32.000Z,1.25
2023-02-21T03:33:31.972Z,1.27
2023-02-21T03:34:31.946Z,1.10
2023-02-21T03:35:31.907Z,1.24
2023-02-21T03:36:31.887Z,1.41
2023-02-21T03:37:31.837Z,1.61
2023-02-21T03:38:31.815Z,1.63
2023-02-21T03:39:31.781Z,1.19
2023-02-21T03:40:31.767Z,1.19
2023-02-21T03:41:31.725Z,1.22
2023-02-21T03:42:31.717Z,1.39
2023-02-21T03:43:32.192Z,1.63
2023-02-21T03:44:31.651Z,1.25
2023-02-21T03:45:32.199Z,1.13
2023-02-21T03:46:31.622Z,1.49
2023-02-21T03:47:31.549Z,1.24
2023-02-21T03:48:32.805Z,1.18
2023-02-21T03:49:31.475Z,1.04
2023-02-21T03:50:31.439Z,1.23
2023-02-21T03:51:31.418Z,1.19
2023-02-21T03:52:31.388Z,1.33
2023-02-21T03:53:31.368Z,1.48
2023-02-21T03:54:31.396Z,1.24
2023-02-21T03:55:31.293Z,1.47
2023-02-21T03:56:41.482Z,1.30
2023-02-21T03:57:32.240Z,0.70
2023-02-21T03:58:31.227Z,1.35
2023-02-21T03:59:31.175Z,1.09
2023-02-21T04:00:31.141Z,0.98
2023-02-21T04:01:31.086Z,1.14
2023-02-21T04:02:31.049Z,1.59
2023-02-21T04:03:31.026Z,1.24
2023-02-21T04:04:31.003Z,1.14
2023-02-21T04:05:30.961Z,1.59
2023-02-21T04:06:30.930Z,1.13
2023-02-21T04:07:30.916Z,1.21
2023-02-21T04:08:30.854Z,1.35
2023-02-21T04:09:30.827Z,1.34
2023-02-21T04:10:33.978Z,1.35
2023-02-21T04:11:31.781Z,1.16
2023-02-21T04:12:30.759Z,1.12
2023-02-21T04:13:30.723Z,1.19
2023-02-21T04:14:30.699Z,1.65
2023-02-21T04:15:30.665Z,1.12
2023-02-21T04:16:30.700Z,1.37
2023-02-21T04:17:30.595Z,1.58
2023-02-21T04:18:30.568Z,1.58
2023-02-21T04:19:30.546Z,1.04
2023-02-21T04:20:30.503Z,1.26
2023-02-21T04:21:30.485Z,0.89
2023-02-21T04:22:30.449Z,1.86
2023-02-21T04:23:30.401Z,1.11
2023-02-21T04:24:30.375Z,1.22
2023-02-21T04:25:30.368Z,1.68
2023-02-21T04:26:30.305Z,1.36
2023-02-21T04:27:30.301Z,1.61
2023-02-21T04:28:30.286Z,1.37
2023-02-21T04:29:30.205Z,1.06
2023-02-21T04:30:30.232Z,1.12
2023-02-21T04:31:30.200Z,1.43
2023-02-21T04:32:30.150Z,1.26
2023-02-21T04:33:30.085Z,1.03
2023-02-21T04:34:30.048Z,1.17
2023-02-21T04:35:30.021Z,1.24
2023-02-21T04:36:29.991Z,1.64
2023-02-21T04:37:29.948Z,1.22
2023-02-21T04:38:29.941Z,1.50
2023-02-21T04:39:29.889Z,1.35
2023-02-21T04:40:29.854Z,1.68
2023-02-21T04:41:29.819Z,1.06
2023-02-21T04:42:29.806Z,1.42
2023-02-21T04:43:29.780Z,1.55
2023-02-21T04:44:29.723Z,1.38
2023-02-21T04:45:29.742Z,1.30
2023-02-21T04:46:29.659Z,1.16
2023-02-21T04:47:29.629Z,1.29
2023-02-21T04:48:29.601Z,1.03
2023-02-21T04:49:29.561Z,1.20
2023-02-21T04:50:29.527Z,1.27
2023-02-21T04:51:29.490Z,1.29
2023-02-21T04:52:29.451Z,1.19
2023-02-21T04:53:29.432Z,1.41
2023-02-21T04:54:29.399Z,1.45
2023-02-21T04:55:29.367Z,1.09
2023-02-21T04:56:29.560Z,1.43
2023-02-21T05:30:32.338Z,1.23
2023-02-21T06:45:13.140Z,2.44
2023-02-21T06:46:13.097Z,3.56
2023-02-21T06:47:13.020Z,3.02
2023-02-21T06:48:14.900Z,3.93
2023-02-21T06:49:13.021Z,3.29
2023-02-21T06:50:12.880Z,4.42
2023-02-21T06:51:13.076Z,3.82
2023-02-21T06:52:12.823Z,3.31
2023-02-21T06:53:13.232Z,3.79
2023-02-21T06:54:12.689Z,3.71
2023-02-21T06:55:12.668Z,3.36
2023-02-21T06:56:12.655Z,3.26
2023-02-21T06:57:12.680Z,4.05
2023-02-21T06:58:12.616Z,3.11
2023-02-21T06:59:12.580Z,3.60
2023-02-21T07:00:12.604Z,2.98
2023-02-21T07:01:12.597Z,3.54
2023-02-21T07:02:12.397Z,3.30
2023-02-21T07:03:12.396Z,3.43
2023-02-21T07:04:12.909Z,2.98
2023-02-21T07:05:12.363Z,3.06
2023-02-21T07:06:12.317Z,3.67
2023-02-21T07:07:12.339Z,2.50
2023-02-21T07:08:12.264Z,3.15
2023-02-21T07:09:12.276Z,3.43
2023-02-21T07:10:12.227Z,3.59
2023-02-21T07:11:12.308Z,3.46
2023-02-21T07:12:12.161Z,3.18
2023-02-21T07:13:12.150Z,2.41
2023-02-21T07:14:12.093Z,2.81
2023-02-21T07:15:13.028Z,2.68
2023-02-21T07:16:12.257Z,3.29
2023-02-21T07:17:12.025Z,2.93
2023-02-21T07:18:12.004Z,3.04
2023-02-21T07:19:12.049Z,3.41
2023-02-21T07:20:11.933Z,2.95
2023-02-21T07:21:11.951Z,3.17
2023-02-21T07:22:11.984Z,3.19
2023-02-21T07:23:11.912Z,3.13
2023-02-21T07:24:11.871Z,3.39
2023-02-21T07:25:11.894Z,3.62
2023-02-21T07:26:11.819Z,3.59
2023-02-21T07:27:11.936Z,3.37
2023-02-21T07:28:11.796Z,3.10
2023-02-21T07:29:11.828Z,2.88
2023-02-21T07:30:11.842Z,2.85
2023-02-21T07:31:11.778Z,2.88
2023-02-21T07:32:11.866Z,2.80
2023-02-21T07:33:11.684Z,3.11
2023-02-21T07:34:12.443Z,2.70
2023-02-21T08:27:10.926Z,4.25
2023-02-21T08:55:09.883Z,4.14
2023-02-21T10:51:06.477Z,2.02
2023-02-21T10:52:06.305Z,2.17
2023-02-21T10:53:06.343Z,2.72
2023-02-21T10:54:06.310Z,2.45
2023-02-21T10:55:06.316Z,2.32
2023-02-21T10:56:07.038Z,1.85
2023-02-21T10:58:06.210Z,1.94
2023-02-21T10:59:06.984Z,2.55
2023-02-21T11:00:06.221Z,2.04
2023-02-21T11:02:07.287Z,1.72
2023-02-21T11:03:05.977Z,2.25
2023-02-21T11:04:08.507Z,1.99
2023-02-21T11:05:06.261Z,1.72
2023-02-21T11:06:06.117Z,1.83
2023-02-21T11:07:06.132Z,1.88
2023-02-21T11:08:06.104Z,1.69
2023-02-21T11:09:06.013Z,2.42
2023-02-21T11:10:06.053Z,1.46
2023-02-21T11:11:06.035Z,1.55
2023-02-21T11:12:06.116Z,2.02
2023-02-21T11:13:06.086Z,1.26
2023-02-21T11:14:06.169Z,1.78
2023-02-21T11:15:06.118Z,1.48
2023-02-21T11:16:06.187Z,1.79
2023-02-21T11:17:06.179Z,1.80
2023-02-21T11:18:06.234Z,1.65
2023-02-21T11:19:06.262Z,1.56
2023-02-21T11:20:06.257Z,1.61
2023-02-21T11:21:06.496Z,1.52
2023-02-21T11:22:06.605Z,1.58
2023-02-21T11:23:06.303Z,1.52
2023-02-21T11:24:06.482Z,1.20
2023-02-21T11:25:06.374Z,1.60
2023-02-21T11:26:06.544Z,1.26
2023-02-21T11:27:06.400Z,1.44
2023-02-21T11:28:06.411Z,1.47
2023-02-21T11:29:06.436Z,1.35
2023-02-21T11:30:06.515Z,1.84
